Chanute Martin Johnson Airport Chanute US
ICAO: KCNU
IATA: CNU
Category: Medium
Scheduled Services: No

Elevation: 1002 ft
TransAlt. 18000 ft.

Airport Communications:
ASOS:127.075
KANSAS CITY CNTR:132.9
WICHITA RDO:122.35
CTAF/UNICOM:122.7

KCNU Zoom In..

If you have problems with the map follow the link
https://www.worldairports.se/pages/airport.php?
ICAO=KCNU

Runways:

(A) RW 18 length 4255 ft width 75 ft
---- / hdg 182

(B) RW 36 length 4255 ft width 75 ft
---- / hdg 2

Location; KCNU
Day. 18 / Time. 06.52 Zulu
* Altimeter: 30.48
* Temperature: 07° c. 44.6°f.
* Wind from: 000° Speed 00 kn.
Dewpoint: 06° c.
Visibility: 10 Statute Miles.
Clouds: Clear (automated report).

KCNU 180652Z AUTO 00000KT 10SM CLR 07/06 A3048 RMK AO2 SLP318 T00670061


Wind - Calm.

 
 
jpsmedia.com for Web Design worldairports.se 2018   terms of use